createdAt,value
2023-02-23T00:01:57.354Z,142.75
2023-02-23T00:04:25.295Z,147.75
2023-02-23T00:06:53.419Z,133.50
2023-02-23T00:09:24.055Z,135.25
2023-02-23T00:11:53.330Z,147.50
2023-02-23T00:14:20.400Z,165.00
2023-02-23T00:16:47.200Z,147.25
2023-02-23T00:19:14.232Z,175.50
2023-02-23T00:21:41.870Z,172.25
2023-02-23T00:24:11.312Z,161.50
2023-02-23T00:26:39.753Z,147.75
2023-02-23T00:29:11.039Z,158.00
2023-02-23T00:31:38.785Z,130.50
2023-02-23T00:34:06.484Z,137.00
2023-02-23T00:36:35.037Z,130.75
2023-02-23T00:39:29.568Z,87.25
2023-02-23T00:42:02.479Z,110.50
2023-02-23T00:44:29.485Z,131.75
2023-02-23T00:46:56.247Z,144.00
2023-02-23T00:49:23.652Z,142.25
2023-02-23T00:51:52.321Z,178.25
2023-02-23T00:54:20.674Z,135.25
2023-02-23T00:56:47.824Z,125.75
2023-02-23T00:59:15.907Z,130.00
2023-02-23T01:01:43.464Z,107.75
2023-02-23T01:04:11.903Z,95.00
2023-02-23T01:06:40.903Z,134.75
2023-02-23T01:09:14.639Z,101.50
2023-02-23T01:11:41.682Z,95.25
2023-02-23T01:14:10.500Z,114.50
2023-02-23T01:16:39.042Z,97.25
2023-02-23T01:19:06.425Z,82.75
2023-02-23T01:21:35.808Z,93.50
2023-02-23T01:24:03.127Z,96.75
2023-02-23T01:26:34.090Z,98.75
2023-02-23T01:29:08.859Z,96.50
2023-02-23T01:31:37.958Z,95.50
2023-02-23T01:34:06.125Z,118.00
2023-02-23T01:36:39.045Z,90.50
2023-02-23T01:39:08.581Z,98.25
2023-02-23T01:41:37.187Z,101.25
2023-02-23T01:44:28.636Z,113.25
2023-02-23T01:46:56.031Z,121.75
2023-02-23T01:49:29.669Z,122.50
2023-02-23T01:52:11.109Z,109.50
2023-02-23T01:54:43.406Z,130.25
2023-02-23T01:57:14.178Z,105.50
2023-02-23T01:59:49.578Z,111.50
2023-02-23T02:02:21.491Z,86.25
2023-02-23T02:04:52.187Z,75.00
2023-02-23T02:07:24.070Z,89.25
2023-02-23T02:10:12.799Z,84.00
2023-02-23T02:12:41.475Z,83.50
2023-02-23T02:15:17.169Z,73.00
2023-02-23T02:18:03.380Z,70.00
2023-02-23T02:21:12.196Z,81.50
2023-02-23T02:24:13.992Z,84.25
2023-02-23T02:27:11.492Z,97.50
2023-02-23T02:29:56.769Z,97.00
2023-02-23T02:32:50.306Z,95.75
2023-02-23T02:35:34.256Z,103.75
2023-02-23T02:38:33.517Z,111.25
2023-02-23T02:41:19.996Z,102.50
2023-02-23T02:44:17.626Z,115.75
2023-02-23T02:46:49.831Z,116.25
2023-02-23T02:49:32.022Z,113.50
2023-02-23T02:52:02.634Z,120.50
2023-02-23T02:54:41.789Z,114.50
2023-02-23T02:57:11.290Z,109.00
2023-02-23T03:00:07.313Z,111.00
2023-02-23T03:02:57.262Z,70.25
2023-02-23T03:05:47.871Z,73.25
2023-02-23T03:08:43.636Z,69.00
2023-02-23T03:11:31.822Z,77.00
2023-02-23T03:14:47.022Z,70.25
2023-02-23T03:18:00.800Z,80.00
2023-02-23T03:21:00.426Z,75.25
2023-02-23T03:23:45.895Z,68.75
2023-02-23T03:27:04.144Z,81.25
2023-02-23T03:29:52.549Z,71.75
2023-02-23T03:32:53.691Z,80.00
2023-02-23T03:36:05.430Z,70.75
2023-02-23T03:38:58.183Z,77.75
2023-02-23T03:41:46.947Z,79.75
2023-02-23T03:44:40.350Z,81.25
2023-02-23T03:47:28.810Z,85.75
2023-02-23T03:50:16.216Z,77.00
2023-02-23T03:53:07.527Z,92.00
2023-02-23T03:55:56.857Z,65.25
2023-02-23T03:58:54.240Z,67.50
2023-02-23T04:01:40.896Z,70.25
2023-02-23T04:04:28.381Z,69.00
2023-02-23T04:07:16.850Z,69.00
2023-02-23T04:10:03.276Z,58.00
2023-02-23T04:13:00.969Z,68.50
2023-02-23T04:15:35.265Z,70.75
2023-02-23T04:18:05.121Z,71.50
2023-02-23T04:20:32.216Z,75.00
2023-02-23T04:22:59.061Z,81.75
2023-02-23T04:25:26.875Z,82.75
2023-02-23T04:27:53.649Z,84.00
2023-02-23T04:30:20.751Z,82.25
2023-02-23T04:32:47.698Z,84.50
2023-02-23T04:35:14.591Z,94.50
2023-02-23T04:37:41.582Z,78.00
2023-02-23T04:40:09.233Z,75.75
2023-02-23T04:42:37.898Z,73.50
2023-02-23T04:45:04.969Z,77.50
2023-02-23T04:47:31.772Z,80.50
2023-02-23T04:49:58.583Z,69.25
2023-02-23T04:52:25.558Z,74.75
2023-02-23T04:54:52.361Z,66.50
2023-02-23T04:57:19.137Z,77.25
2023-02-23T04:59:45.898Z,86.00
2023-02-23T05:02:12.708Z,77.50
2023-02-23T05:04:41.337Z,83.50
2023-02-23T05:07:08.209Z,82.25
2023-02-23T05:09:35.231Z,78.50
2023-02-23T05:12:02.222Z,78.00
2023-02-23T05:14:29.039Z,65.25
2023-02-23T05:16:55.909Z,78.50
2023-02-23T05:19:22.828Z,88.25
2023-02-23T05:21:50.732Z,80.00
2023-02-23T05:24:18.394Z,81.75
2023-02-23T05:26:45.842Z,86.75
2023-02-23T05:29:12.855Z,94.25
2023-02-23T05:31:39.692Z,95.75
2023-02-23T05:34:06.836Z,88.25
2023-02-23T05:36:33.711Z,132.00
2023-02-23T05:39:00.531Z,107.25
2023-02-23T05:41:27.335Z,119.50
2023-02-23T05:43:55.510Z,109.25
2023-02-23T05:46:26.955Z,98.00
2023-02-23T05:49:01.187Z,98.25
2023-02-23T05:51:30.093Z,86.25
2023-02-23T05:53:56.863Z,88.75
2023-02-23T05:56:23.990Z,101.00
2023-02-23T05:58:53.183Z,114.00
2023-02-23T06:01:21.299Z,126.75
2023-02-23T06:03:48.789Z,119.75
2023-02-23T06:06:16.340Z,133.25
2023-02-23T06:08:43.169Z,82.00
2023-02-23T06:11:10.830Z,105.25
2023-02-23T06:13:37.771Z,107.50
2023-02-23T06:16:05.168Z,114.50
2023-02-23T06:18:32.012Z,125.25
2023-02-23T06:21:00.496Z,131.00
2023-02-23T06:23:28.697Z,135.25
2023-02-23T06:25:55.553Z,153.25
2023-02-23T06:28:22.420Z,176.50
2023-02-23T06:30:55.464Z,183.25
2023-02-23T06:33:22.825Z,175.25
2023-02-23T06:35:49.854Z,192.00
2023-02-23T06:38:16.902Z,202.50
2023-02-23T06:40:43.764Z,170.50
2023-02-23T06:43:10.932Z,159.25
2023-02-23T06:45:37.765Z,175.50
2023-02-23T06:48:05.221Z,167.50
2023-02-23T06:50:32.061Z,172.50
2023-02-23T06:52:59.050Z,169.00
2023-02-23T06:55:25.904Z,153.50
2023-02-23T06:57:54.369Z,161.50
2023-02-23T07:00:21.897Z,163.50
2023-02-23T07:02:48.779Z,159.00
2023-02-23T07:05:16.281Z,154.50
2023-02-23T07:07:43.413Z,141.75
2023-02-23T07:10:11.040Z,139.25
2023-02-23T07:12:37.826Z,158.25
2023-02-23T07:15:05.400Z,113.25
2023-02-23T07:17:32.246Z,121.75
2023-02-23T07:19:59.059Z,128.75
2023-02-23T07:22:29.395Z,117.75
2023-02-23T07:24:58.912Z,142.75
2023-02-23T07:27:27.734Z,156.25
2023-02-23T07:29:54.583Z,157.25
2023-02-23T07:32:21.562Z,149.75
2023-02-23T07:34:48.430Z,152.75
2023-02-23T07:37:17.194Z,154.75
2023-02-23T07:39:44.189Z,165.75
2023-02-23T07:42:11.091Z,168.75
2023-02-23T07:44:38.771Z,195.00
2023-02-23T07:47:06.727Z,197.00
2023-02-23T07:49:34.354Z,175.25
2023-02-23T07:52:01.169Z,194.00
2023-02-23T07:54:27.924Z,193.75
2023-02-23T07:56:54.706Z,223.00
2023-02-23T07:59:21.563Z,185.50
2023-02-23T08:01:48.396Z,152.25
2023-02-23T08:04:15.321Z,130.00
2023-02-23T08:06:42.180Z,139.75
2023-02-23T08:09:09.114Z,159.75
2023-02-23T08:11:36.504Z,204.75
2023-02-23T08:14:03.572Z,183.50
2023-02-23T08:16:32.406Z,177.25
2023-02-23T08:19:03.079Z,155.75
2023-02-23T08:21:30.309Z,162.25
2023-02-23T08:23:58.375Z,159.00
2023-02-23T08:26:25.975Z,145.00
2023-02-23T08:28:54.388Z,171.75
2023-02-23T08:31:24.445Z,159.75
2023-02-23T08:33:51.668Z,163.00
2023-02-23T08:36:18.459Z,165.75
2023-02-23T08:38:45.181Z,148.50
2023-02-23T08:41:12.486Z,158.75
2023-02-23T08:43:39.372Z,130.50
2023-02-23T08:46:07.094Z,138.75
2023-02-23T08:48:35.146Z,116.00
2023-02-23T08:51:02.039Z,115.75
2023-02-23T08:53:29.889Z,120.50
2023-02-23T08:55:58.319Z,89.25
2023-02-23T08:58:25.293Z,101.00
2023-02-23T09:00:52.146Z,92.50
2023-02-23T09:03:22.740Z,105.00
2023-02-23T09:05:50.096Z,105.25
2023-02-23T09:08:16.912Z,94.50
2023-02-23T09:10:46.945Z,98.25
2023-02-23T09:13:15.876Z,102.50
2023-02-23T09:15:43.595Z,109.25
2023-02-23T09:18:13.907Z,65.25
2023-02-23T09:20:45.180Z,48.75
2023-02-23T09:23:12.657Z,52.00
2023-02-23T09:25:43.765Z,49.00
2023-02-23T09:28:19.023Z,43.25
2023-02-23T09:30:46.726Z,47.25
2023-02-23T09:33:13.961Z,41.75
2023-02-23T09:35:41.512Z,38.75
2023-02-23T09:38:09.124Z,39.00
2023-02-23T09:40:50.238Z,39.50
2023-02-23T09:43:35.843Z,46.50
2023-02-23T09:46:29.765Z,45.25
2023-02-23T09:49:01.006Z,46.50
2023-02-23T09:51:30.239Z,42.00
2023-02-23T09:54:00.904Z,47.25
2023-02-23T09:56:36.037Z,46.75
2023-02-23T09:59:05.531Z,47.25
2023-02-23T10:01:35.053Z,48.50
2023-02-23T10:04:11.055Z,47.25
2023-02-23T10:06:41.709Z,45.00
2023-02-23T10:09:42.530Z,44.25
2023-02-23T10:12:46.811Z,49.00
2023-02-23T10:15:24.934Z,46.25
2023-02-23T10:18:45.660Z,46.50
2023-02-23T10:21:33.879Z,53.00
2023-02-23T10:24:08.047Z,51.75
2023-02-23T10:26:47.425Z,44.75
2023-02-23T10:29:32.637Z,42.75
2023-02-23T10:32:07.900Z,48.25
2023-02-23T10:34:37.051Z,48.00
2023-02-23T10:37:06.755Z,39.00
2023-02-23T10:39:34.632Z,39.75
2023-02-23T10:42:07.843Z,39.67
2023-02-23T10:44:34.726Z,40.00
2023-02-23T10:47:23.081Z,42.00
2023-02-23T10:49:54.588Z,42.50
2023-02-23T10:52:32.677Z,40.25
2023-02-23T10:55:00.624Z,40.25
2023-02-23T10:57:33.881Z,44.00
2023-02-23T11:00:09.739Z,44.50
2023-02-23T11:02:36.742Z,43.00
2023-02-23T11:05:05.413Z,43.00
2023-02-23T11:07:33.755Z,42.25
2023-02-23T11:10:27.937Z,42.00
2023-02-23T11:12:54.720Z,42.33
2023-02-23T11:15:31.957Z,41.33
2023-02-23T11:18:05.345Z,39.00
2023-02-23T11:20:43.328Z,41.33
2023-02-23T11:23:29.119Z,42.00
2023-02-23T11:26:04.226Z,41.00
2023-02-23T11:28:36.047Z,43.00
2023-02-23T11:31:19.857Z,39.00
2023-02-23T11:33:48.398Z,39.00
2023-02-23T11:36:24.081Z,42.50
2023-02-23T11:39:17.173Z,35.33
2023-02-23T11:41:44.089Z,41.00
2023-02-23T11:44:23.597Z,39.00
2023-02-23T11:46:51.934Z,39.00
2023-02-23T11:49:26.295Z,40.33
2023-02-23T11:51:54.811Z,38.00
2023-02-23T11:54:29.732Z,37.00
2023-02-23T11:56:58.096Z,31.33
2023-02-23T11:59:32.342Z,33.67
2023-02-23T12:02:19.275Z,40.67
2023-02-23T12:04:49.786Z,34.00
2023-02-23T12:07:41.778Z,38.33
2023-02-23T12:10:23.794Z,39.67
2023-02-23T12:12:53.150Z,37.33
2023-02-23T12:15:34.409Z,37.33
2023-02-23T12:18:17.063Z,38.67
2023-02-23T12:20:48.717Z,35.33
2023-02-23T12:23:27.883Z,40.33
2023-02-23T12:25:59.871Z,39.67
2023-02-23T12:28:43.345Z,36.67
2023-02-23T12:31:19.215Z,37.00
2023-02-23T12:33:57.758Z,36.67
2023-02-23T12:36:42.227Z,39.67
2023-02-23T12:39:28.075Z,42.00
2023-02-23T12:42:25.150Z,39.33
2023-02-23T12:44:53.660Z,38.00
2023-02-23T12:47:38.309Z,38.33
2023-02-23T12:50:23.593Z,39.67
2023-02-23T12:53:02.124Z,38.00
2023-02-23T12:55:41.610Z,36.67
2023-02-23T12:58:34.328Z,37.33
2023-02-23T13:01:09.498Z,36.33
2023-02-23T13:03:55.139Z,38.67
2023-02-23T13:06:37.969Z,31.67
2023-02-23T13:09:35.600Z,26.33
2023-02-23T13:12:20.999Z,30.00
2023-02-23T13:14:59.546Z,31.33
2023-02-23T13:17:44.670Z,30.33
2023-02-23T13:20:33.720Z,35.00
2023-02-23T13:23:29.569Z,27.67
2023-02-23T13:26:24.793Z,35.00
2023-02-23T13:29:23.213Z,36.00
2023-02-23T13:31:50.572Z,26.00
2023-02-23T13:34:27.746Z,27.00
2023-02-23T13:36:55.386Z,21.33
2023-02-23T13:39:48.308Z,34.00
2023-02-23T13:42:52.172Z,31.00
2023-02-23T13:45:39.749Z,35.67
2023-02-23T13:48:28.267Z,36.67
2023-02-23T13:51:06.858Z,37.00
2023-02-23T13:53:39.875Z,35.00
2023-02-23T13:56:28.106Z,29.67
2023-02-23T13:59:00.299Z,35.33
2023-02-23T14:01:31.508Z,36.00
2023-02-23T14:04:01.936Z,35.67
2023-02-23T14:06:33.333Z,40.33
2023-02-23T14:09:34.922Z,38.00
2023-02-23T14:12:06.281Z,25.67
2023-02-23T14:14:36.452Z,29.33
2023-02-23T14:17:14.990Z,29.00
2023-02-23T14:20:17.887Z,30.33
2023-02-23T14:23:22.022Z,27.67
2023-02-23T14:26:18.114Z,30.67
2023-02-23T14:28:49.502Z,34.33
2023-02-23T14:31:23.296Z,47.00
2023-02-23T14:33:59.515Z,16.00
2023-02-23T14:36:26.446Z,30.67
2023-02-23T14:39:04.243Z,34.67
2023-02-23T14:41:33.916Z,32.67
2023-02-23T14:44:12.366Z,29.33
2023-02-23T14:47:06.480Z,36.00
2023-02-23T14:49:37.866Z,35.33
2023-02-23T14:52:29.360Z,42.33
2023-02-23T14:55:36.775Z,32.00
2023-02-23T14:58:18.205Z,56.50
2023-02-23T15:00:45.015Z,50.25
2023-02-23T15:03:13.651Z,34.67
2023-02-23T15:05:46.965Z,48.25
2023-02-23T15:08:20.511Z,27.33
2023-02-23T15:10:50.900Z,38.33
2023-02-23T15:13:33.084Z,37.33
2023-02-23T15:16:09.955Z,29.33
2023-02-23T15:18:40.227Z,43.67
2023-02-23T15:21:18.538Z,47.00
2023-02-23T15:23:49.071Z,40.00
2023-02-23T15:26:24.176Z,52.50
2023-02-23T15:28:51.476Z,44.67
2023-02-23T15:31:19.708Z,105.00
2023-02-23T15:33:50.753Z,48.67
2023-02-23T15:36:34.877Z,54.75
2023-02-23T15:39:06.723Z,84.50
2023-02-23T15:41:36.925Z,79.75
2023-02-23T15:44:24.166Z,51.75
2023-02-23T15:47:04.150Z,42.33
2023-02-23T15:49:38.207Z,59.75
2023-02-23T15:52:14.923Z,55.75
2023-02-23T15:55:00.511Z,56.25
2023-02-23T15:57:31.472Z,54.75
2023-02-23T16:00:00.720Z,55.75
2023-02-23T16:02:29.812Z,68.50
2023-02-23T16:04:57.697Z,57.25
2023-02-23T16:07:27.011Z,50.50
2023-02-23T16:10:18.262Z,44.00
2023-02-23T16:12:49.861Z,46.00
2023-02-23T16:15:29.542Z,56.75
2023-02-23T16:18:10.156Z,65.75
2023-02-23T16:20:56.093Z,46.25
2023-02-23T16:23:34.126Z,45.50
2023-02-23T16:26:10.731Z,53.00
2023-02-23T16:28:43.772Z,45.75
2023-02-23T16:31:15.971Z,51.00
2023-02-23T16:33:42.826Z,68.75
2023-02-23T16:36:14.626Z,72.50
2023-02-23T16:39:03.375Z,70.75
2023-02-23T16:41:34.289Z,52.25
2023-02-23T16:44:03.550Z,109.50
2023-02-23T16:46:52.154Z,102.75
2023-02-23T16:49:19.992Z,98.00
2023-02-23T16:51:46.778Z,105.50
2023-02-23T16:54:13.609Z,81.50
2023-02-23T16:56:40.560Z,82.00
2023-02-23T16:59:10.277Z,66.00
2023-02-23T17:01:37.253Z,55.75
2023-02-23T17:04:15.494Z,68.50
2023-02-23T17:06:43.580Z,66.00
2023-02-23T17:09:12.673Z,59.00
2023-02-23T17:11:41.540Z,75.00
2023-02-23T17:14:08.290Z,80.00
2023-02-23T17:16:35.135Z,81.00
2023-02-23T17:19:02.098Z,136.75
2023-02-23T17:21:29.235Z,115.75
2023-02-23T17:24:02.812Z,119.25
2023-02-23T17:26:29.672Z,113.75
2023-02-23T17:28:56.591Z,152.75
2023-02-23T17:31:26.666Z,136.50
2023-02-23T17:33:55.365Z,122.50
2023-02-23T17:36:23.966Z,118.25
2023-02-23T17:38:50.903Z,89.25
2023-02-23T17:41:19.734Z,94.00
2023-02-23T17:43:47.035Z,107.75
2023-02-23T17:46:13.972Z,108.75
2023-02-23T17:48:44.603Z,92.25
2023-02-23T17:51:12.786Z,103.00
2023-02-23T17:53:40.418Z,112.25
2023-02-23T17:56:07.812Z,174.50
2023-02-23T17:58:34.764Z,179.75
2023-02-23T18:01:04.189Z,154.75
2023-02-23T18:03:32.901Z,168.00
2023-02-23T18:06:11.707Z,170.75
2023-02-23T18:08:41.949Z,157.75
2023-02-23T18:11:09.646Z,165.75
2023-02-23T18:13:37.300Z,198.75
2023-02-23T18:16:10.075Z,192.25
2023-02-23T18:18:39.863Z,197.75
2023-02-23T18:21:12.561Z,184.50
2023-02-23T18:23:39.422Z,154.50
2023-02-23T18:26:11.061Z,142.75
2023-02-23T18:28:39.710Z,129.00
2023-02-23T18:31:06.787Z,115.00
2023-02-23T18:33:35.915Z,116.25
2023-02-23T18:36:03.945Z,113.75
2023-02-23T18:38:30.874Z,143.00
2023-02-23T18:40:58.811Z,156.75
2023-02-23T18:43:25.688Z,151.50
2023-02-23T18:45:52.456Z,139.75
2023-02-23T18:48:20.462Z,211.25
2023-02-23T18:50:51.814Z,237.50
2023-02-23T18:53:31.975Z,260.75
2023-02-23T18:56:04.657Z,223.00
2023-02-23T18:58:39.263Z,205.50
2023-02-23T19:01:25.138Z,124.50
2023-02-23T19:03:52.597Z,122.75
2023-02-23T19:06:23.759Z,125.50
2023-02-23T19:08:54.128Z,122.25
2023-02-23T19:11:29.929Z,124.00
2023-02-23T19:13:59.689Z,137.00
2023-02-23T19:16:28.605Z,141.00
2023-02-23T19:18:55.364Z,132.00
2023-02-23T19:21:24.851Z,123.50
2023-02-23T19:23:52.802Z,120.00
2023-02-23T19:26:21.402Z,114.25
2023-02-23T19:28:48.768Z,133.75
2023-02-23T19:31:20.747Z,115.50
2023-02-23T19:33:49.793Z,205.75
2023-02-23T19:36:20.228Z,133.00
2023-02-23T19:38:48.737Z,90.75
2023-02-23T19:41:19.437Z,83.25
2023-02-23T19:43:48.029Z,69.50
2023-02-23T19:46:17.405Z,64.00
2023-02-23T19:48:48.593Z,81.50
2023-02-23T19:51:15.546Z,80.00
2023-02-23T19:53:42.428Z,67.75
2023-02-23T19:56:12.017Z,158.25
2023-02-23T19:58:39.428Z,153.25
2023-02-23T20:01:08.451Z,153.75
2023-02-23T20:03:39.559Z,168.00
2023-02-23T20:06:07.165Z,159.50
2023-02-23T20:08:34.099Z,288.50
2023-02-23T20:11:00.885Z,140.25
2023-02-23T20:13:27.690Z,160.50
2023-02-23T20:16:04.066Z,132.25
2023-02-23T20:18:33.710Z,137.00
2023-02-23T20:21:00.914Z,135.25
2023-02-23T20:23:28.128Z,148.25
2023-02-23T20:25:55.306Z,139.25
2023-02-23T20:28:22.439Z,145.00
2023-02-23T20:30:49.826Z,161.00
2023-02-23T20:33:17.200Z,126.50
2023-02-23T20:35:44.078Z,89.50
2023-02-23T20:38:11.705Z,79.25
2023-02-23T20:40:38.758Z,122.00
2023-02-23T20:43:05.633Z,107.25
2023-02-23T20:45:32.611Z,77.25
2023-02-23T20:47:59.597Z,69.00
2023-02-23T20:50:28.927Z,79.50
2023-02-23T20:52:56.398Z,118.00
2023-02-23T20:55:26.406Z,143.50
2023-02-23T20:57:54.909Z,150.50
2023-02-23T21:00:23.740Z,159.25
2023-02-23T21:02:55.764Z,153.25
2023-02-23T21:05:27.525Z,146.00
2023-02-23T21:07:59.941Z,147.25
2023-02-23T21:10:29.995Z,161.75
2023-02-23T21:12:57.857Z,178.75
2023-02-23T21:15:26.352Z,158.25
2023-02-23T21:17:54.306Z,151.75
2023-02-23T21:20:21.869Z,167.50
2023-02-23T21:22:52.186Z,185.75
2023-02-23T21:25:21.794Z,134.25
2023-02-23T21:27:49.120Z,137.00
2023-02-23T21:30:22.152Z,132.50
2023-02-23T21:32:50.993Z,121.75
2023-02-23T21:35:19.873Z,146.00
2023-02-23T21:37:47.513Z,141.25
2023-02-23T21:40:21.403Z,162.00
2023-02-23T21:42:50.732Z,158.25
2023-02-23T21:45:19.456Z,163.75
2023-02-23T21:47:48.306Z,160.50
2023-02-23T21:50:19.176Z,161.00
2023-02-23T21:52:49.216Z,149.00
2023-02-23T21:55:24.436Z,153.50
2023-02-23T21:57:53.001Z,184.25
2023-02-23T22:00:21.781Z,171.50
2023-02-23T22:02:50.212Z,198.25
2023-02-23T22:05:20.215Z,183.75
2023-02-23T22:07:50.528Z,174.00
2023-02-23T22:10:23.316Z,156.50
2023-02-23T22:12:57.679Z,140.50
2023-02-23T22:15:28.646Z,198.75
2023-02-23T22:17:57.876Z,200.25
2023-02-23T22:20:26.155Z,169.00
2023-02-23T22:22:53.006Z,180.75
2023-02-23T22:25:21.664Z,150.25
2023-02-23T22:27:49.286Z,155.00
2023-02-23T22:30:21.060Z,173.25
2023-02-23T22:32:48.879Z,162.25
2023-02-23T22:35:16.938Z,151.25
2023-02-23T22:37:43.783Z,155.50
2023-02-23T22:40:13.877Z,142.00
2023-02-23T22:42:44.305Z,128.00
2023-02-23T22:45:12.392Z,122.00
2023-02-23T22:47:40.447Z,130.50
2023-02-23T22:50:07.610Z,100.50
2023-02-23T22:52:35.329Z,95.25
2023-02-23T22:55:03.974Z,88.75
2023-02-23T22:57:30.799Z,74.25
2023-02-23T23:00:00.710Z,71.00
2023-02-23T23:02:32.389Z,76.00
2023-02-23T23:05:00.447Z,68.00
2023-02-23T23:07:28.635Z,73.75
2023-02-23T23:09:55.435Z,76.75
2023-02-23T23:12:22.331Z,74.75
2023-02-23T23:14:49.086Z,78.00
2023-02-23T23:17:16.503Z,72.25
2023-02-23T23:19:44.155Z,65.25
2023-02-23T23:22:14.809Z,63.50
2023-02-23T23:24:46.742Z,87.50
2023-02-23T23:27:19.800Z,77.50
2023-02-23T23:29:49.487Z,82.50
2023-02-23T23:32:19.474Z,113.00
2023-02-23T23:34:50.668Z,129.00
2023-02-23T23:37:18.872Z,103.00
2023-02-23T23:39:46.633Z,112.00
2023-02-23T23:42:15.263Z,101.25
2023-02-23T23:44:42.116Z,129.00
2023-02-23T23:47:08.898Z,87.25
2023-02-23T23:49:38.101Z,76.50
2023-02-23T23:52:05.768Z,69.25
2023-02-23T23:54:41.332Z,62.75
2023-02-23T23:57:10.106Z,57.25
2023-02-23T23:59:41.574Z,55.25
